Time;durP1;ratioP1;P1;durP2;ratioP2;P2;SDS_P1;SDS_P2;PMS_P1;PMS_P2;Temp;Humidity;BMP_temperature;BMP_pressure;BME280_temperature;BME280_humidity;BME280_pressure;Samples;Min_cycle;Max_cycle;Signal;HPM_P1;HPM_P2
2021/07/15 00:01:13;;;;;;;3.30;3.10;;;26.80;50.70;;;-147.20;100.00;58430.41;5096306;28;20126;-50
2021/07/15 00:03:39;;;;;;;3.10;2.88;;;26.80;50.70;;;-147.20;100.00;58430.41;5115369;28;20047;-53
2021/07/15 00:06:05;;;;;;;3.20;3.00;;;26.80;50.80;;;-147.20;100.00;58430.41;5115305;28;20070;-52
2021/07/15 00:08:32;;;;;;;3.10;2.90;;;26.80;50.70;;;-147.20;100.00;58430.41;5115284;28;20055;-50
2021/07/15 00:11:03;;;;;;;3.47;3.20;;;26.80;50.80;;;-147.20;100.00;58430.41;5115167;28;20092;-54
2021/07/15 00:13:29;;;;;;;3.10;2.90;;;26.80;50.80;;;-147.20;100.00;58430.41;5115514;28;20088;-48
2021/07/15 00:16:00;;;;;;;3.53;3.22;;;26.80;50.80;;;-147.20;100.00;58430.41;5114179;28;20056;-52
2021/07/15 00:18:31;;;;;;;3.20;3.00;;;26.70;50.80;;;-147.20;100.00;58430.41;5115202;28;20047;-54
2021/07/15 00:20:58;;;;;;;;;;;26.70;50.80;;;-147.20;100.00;58430.41;5115623;28;20056;-53
2021/07/15 00:23:26;;;;;;;3.10;2.90;;;26.80;50.90;;;-147.20;100.00;58430.41;5115357;28;19960;-53
2021/07/15 00:25:53;;;;;;;2.90;2.70;;;26.80;50.90;;;-147.20;100.00;58430.41;5115031;28;20472;-47
2021/07/15 00:28:19;;;;;;;3.33;3.08;;;26.80;50.90;;;-147.20;100.00;58430.41;5096390;28;20487;-52
2021/07/15 00:30:46;;;;;;;3.40;3.20;;;26.80;50.90;;;-147.20;100.00;58430.41;5115248;28;20079;-51
2021/07/15 00:33:12;;;;;;;2.90;2.70;;;26.70;50.80;;;-147.20;100.00;58430.41;5114838;28;20522;-55
2021/07/15 00:35:39;;;;;;;3.22;3.03;;;26.70;50.80;;;-147.20;100.00;58430.41;5096865;28;20164;-54
2021/07/15 00:38:06;;;;;;;3.17;2.97;;;26.70;50.80;;;-147.20;100.00;58430.41;5112664;28;20052;-53
2021/07/15 00:40:34;;;;;;;2.88;2.67;;;26.70;50.80;;;-147.20;100.00;58430.41;5114939;28;20126;-53
2021/07/15 00:43:00;;;;;;;3.13;2.92;;;26.70;50.90;;;-147.20;100.00;58430.41;5114858;28;20062;-55
2021/07/15 00:45:26;;;;;;;3.50;3.28;;;26.70;50.90;;;-147.20;100.00;58430.41;5114526;28;20052;-50
2021/07/15 00:47:52;;;;;;;3.47;3.28;;;26.70;50.90;;;-147.20;100.00;58430.41;5114548;28;20052;-49
2021/07/15 00:50:20;;;;;;;3.15;2.92;;;26.70;50.90;;;-147.20;100.00;58430.41;5114444;28;20372;-52
2021/07/15 00:52:50;;;;;;;3.13;2.92;;;26.70;50.90;;;-147.20;100.00;58430.41;5092420;28;20083;-52
2021/07/15 00:55:32;;;;;;;3.42;3.13;;;26.70;51.00;;;-147.20;100.00;58430.41;5114954;28;20077;-50
2021/07/15 00:57:59;;;;;;;3.20;3.00;;;26.70;51.00;;;-147.20;100.00;58430.41;5114194;28;20514;-48
2021/07/15 01:00:25;;;;;;;3.00;2.80;;;26.60;50.90;;;-147.20;100.00;58430.41;5114384;28;20055;-54
2021/07/15 01:02:53;;;;;;;2.92;2.72;;;26.70;51.00;;;-147.20;100.00;58430.41;5114275;28;20052;-53
2021/07/15 01:05:42;;;;;;;2.90;2.70;;;26.70;51.00;;;-147.20;100.00;58430.41;5114376;28;20437;-50
2021/07/15 01:08:09;;;;;;;3.53;3.28;;;26.60;51.00;;;-147.20;100.00;58430.41;5114301;28;20056;-52
2021/07/15 01:10:39;;;;;;;3.25;3.05;;;26.60;51.00;;;-147.20;100.00;58430.41;5114155;28;20064;-54
2021/07/15 01:13:09;;;;;;;3.40;3.10;;;26.60;51.00;;;-147.20;100.00;58430.41;5095783;28;20142;-53
2021/07/15 01:15:55;;;;;;;3.00;2.80;;;26.60;51.00;;;-147.20;100.00;58430.41;5113951;28;20043;-52
2021/07/15 01:18:46;;;;;;;3.75;3.38;;;26.60;51.10;;;-147.20;100.00;58430.41;5114476;28;20039;-53
2021/07/15 01:21:49;;;;;;;3.35;3.10;;;26.60;51.10;;;-147.20;100.00;58430.41;5110346;28;20100;-52
2021/07/15 01:25:09;;;;;;;3.05;2.83;;;26.60;51.10;;;-147.20;100.00;58430.41;5113990;28;20047;-54
2021/07/15 01:28:00;;;;;;;3.08;2.88;;;26.60;51.10;;;-147.20;100.00;58430.41;5095544;28;20050;-50
2021/07/15 01:30:46;;;;;;;2.90;2.70;;;26.60;51.10;;;-147.20;100.00;58430.41;5112825;28;20054;-52
2021/07/15 01:33:22;;;;;;;2.72;2.53;;;26.60;51.10;;;-147.20;100.00;58430.41;5113969;28;20139;-54
2021/07/15 01:35:54;;;;;;;3.03;2.83;;;26.60;51.20;;;-147.20;100.00;58430.41;5113947;28;20496;-55
2021/07/15 01:38:24;;;;;;;3.13;2.92;;;26.50;51.10;;;-147.20;100.00;58430.41;5093188;28;20052;-51
2021/07/15 01:41:04;;;;;;;3.13;2.92;;;26.50;51.10;;;-147.20;100.00;58430.41;5114256;28;20063;-54
2021/07/15 01:43:41;;;;;;;3.80;3.50;;;26.50;51.20;;;-147.20;100.00;58430.41;5114117;28;20497;-50
2021/07/15 01:46:08;;;;;;;3.20;3.00;;;26.50;51.20;;;-147.20;100.00;58430.41;5113778;28;20096;-54
2021/07/15 01:48:36;;;;;;;2.75;2.55;;;26.50;51.20;;;-147.20;100.00;58430.41;5113665;28;20518;-52
2021/07/15 01:51:02;;;;;;;2.90;2.70;;;26.50;51.20;;;-147.20;100.00;58430.41;5095414;28;20040;-53
2021/07/15 01:53:29;;;;;;;3.00;2.80;;;26.50;51.30;;;-147.20;100.00;58430.41;5095381;28;20047;-53
2021/07/15 01:55:57;;;;;;;3.05;2.85;;;26.50;51.30;;;-147.20;100.00;58430.41;5113567;28;20044;-52
2021/07/15 01:58:27;;;;;;;2.80;2.60;;;26.50;51.30;;;-147.20;100.00;58430.41;5095614;28;20193;-49
2021/07/15 02:00:53;;;;;;;3.00;2.80;;;26.50;51.30;;;-147.20;100.00;58430.41;5095237;28;20495;-51
2021/07/15 02:03:21;;;;;;;2.88;2.67;;;26.50;51.30;;;-147.20;100.00;58430.41;5095763;28;20047;-53
2021/07/15 02:05:49;;;;;;;3.33;3.03;;;26.50;51.30;;;-147.20;100.00;58430.41;5095700;28;20054;-53
2021/07/15 02:08:18;;;;;;;3.30;3.08;;;26.50;51.30;;;-147.20;100.00;58430.41;5095199;28;20491;-52
2021/07/15 02:10:47;;;;;;;3.00;2.80;;;26.50;51.30;;;-147.20;100.00;58430.41;5095494;28;20056;-51
2021/07/15 02:13:13;;;;;;;2.90;2.70;;;26.50;51.40;;;-147.20;100.00;58430.41;5113193;28;20522;-52
2021/07/15 02:15:40;;;;;;;2.75;2.55;;;26.50;51.40;;;-147.20;100.00;58430.41;5113145;28;20051;-51
2021/07/15 02:18:13;;;;;;;3.10;2.90;;;26.40;51.30;;;-147.20;100.00;58430.41;5093437;28;20145;-52
2021/07/15 02:20:41;;;;;;;2.65;2.45;;;26.40;51.40;;;-147.20;100.00;58430.41;5092044;28;20049;-51
2021/07/15 02:23:09;;;;;;;2.92;2.72;;;26.40;51.30;;;-147.20;100.00;58430.41;5109613;28;20044;-52
2021/07/15 02:25:38;;;;;;;3.20;3.00;;;26.40;51.40;;;-147.20;100.00;58430.41;5113080;28;20043;-49
2021/07/15 02:28:07;;;;;;;3.17;2.97;;;26.40;51.40;;;-147.20;100.00;58430.41;5112973;28;20079;-51
2021/07/15 02:30:34;;;;;;;2.88;2.67;;;26.40;51.40;;;-147.20;100.00;58430.41;5112989;28;20058;-48
2021/07/15 02:33:04;;;;;;;2.80;2.60;;;26.50;51.50;;;-147.20;100.00;58430.41;5112924;28;20051;-48
2021/07/15 02:35:39;;;;;;;2.83;2.63;;;26.40;51.40;;;-147.20;100.00;58430.41;5091581;28;20063;-50
2021/07/15 02:38:09;;;;;;;3.10;2.90;;;26.40;51.40;;;-147.20;100.00;58430.41;5112483;28;20048;-51
2021/07/15 02:40:35;;;;;;;2.85;2.65;;;26.40;51.50;;;-147.20;100.00;58430.41;5092488;28;20049;-53
2021/07/15 02:43:01;;;;;;;2.78;2.58;;;26.40;51.50;;;-147.20;100.00;58430.41;5112652;28;20052;-52
2021/07/15 02:45:26;;;;;;;2.90;2.70;;;26.40;51.50;;;-147.20;100.00;58430.41;5112801;28;20914;-50
2021/07/15 02:47:52;;;;;;;3.20;3.00;;;26.40;51.50;;;-147.20;100.00;58430.41;5112823;28;20051;-51
2021/07/15 02:50:23;;;;;;;3.13;2.83;;;26.40;51.50;;;-147.20;100.00;58430.41;5112968;28;20535;-56
2021/07/15 02:52:54;;;;;;;3.05;2.85;;;26.40;51.60;;;-147.20;100.00;58430.41;5112973;28;20131;-51
2021/07/15 02:55:22;;;;;;;2.80;2.60;;;26.40;51.60;;;-147.20;100.00;58430.41;5112696;28;20066;-52
2021/07/15 02:58:26;;;;;;;3.10;2.90;;;26.40;51.50;;;-147.20;100.00;58430.41;5112973;28;20483;-52
2021/07/15 03:01:00;;;;;;;2.90;2.70;;;26.40;51.60;;;-147.20;100.00;58430.41;5010154;28;20486;-45
2021/07/15 03:04:10;;;;;;;2.63;2.42;;;26.30;51.50;;;-147.20;100.00;58430.41;5081555;28;20467;-51
2021/07/15 03:06:43;;;;;;;3.08;2.88;;;26.40;51.60;;;-147.20;100.00;58430.41;5108638;28;20487;-49
2021/07/15 03:09:13;;;;;;;3.10;2.90;;;26.30;51.60;;;-147.20;100.00;58430.41;5092921;28;20072;-48
2021/07/15 03:11:51;;;;;;;2.80;2.60;;;26.30;51.60;;;-147.20;100.00;58430.41;5112875;28;20048;-53
2021/07/15 03:14:17;;;;;;;2.88;2.67;;;26.30;51.60;;;-147.20;100.00;58430.41;5094502;28;20059;-48
2021/07/15 03:16:46;;;;;;;3.15;2.95;;;26.30;51.60;;;-147.20;100.00;58430.41;5094298;28;20059;-51
2021/07/15 03:19:14;;;;;;;3.15;2.90;;;26.30;51.60;;;-147.20;100.00;58430.41;5094359;28;20083;-53
2021/07/15 03:21:44;;;;;;;2.70;2.50;;;26.30;51.60;;;-147.20;100.00;58430.41;5094501;28;20070;-48
2021/07/15 03:24:12;;;;;;;2.78;2.58;;;26.30;51.60;;;-147.20;100.00;58430.41;5112804;28;20072;-54
2021/07/15 03:26:39;;;;;;;3.00;2.80;;;26.30;51.60;;;-147.20;100.00;58430.41;5112404;28;20079;-52
2021/07/15 03:29:06;;;;;;;3.15;2.95;;;26.30;51.70;;;-147.20;100.00;58430.41;5094207;28;20560;-49
2021/07/15 03:31:34;;;;;;;2.90;2.70;;;26.30;51.70;;;-147.20;100.00;58430.41;5112362;28;20067;-51
2021/07/15 03:34:00;;;;;;;3.45;2.63;;;26.30;51.70;;;-147.20;100.00;58430.41;5094016;28;20047;-51
2021/07/15 03:36:27;;;;;;;3.33;3.03;;;26.30;51.70;;;-147.20;100.00;58430.41;5112235;28;20048;-54
2021/07/15 03:38:54;;;;;;;3.05;2.85;;;26.30;51.70;;;-147.20;100.00;58430.41;5094421;28;20048;-51
2021/07/15 03:41:22;;;;;;;2.83;2.63;;;26.30;51.70;;;-147.20;100.00;58430.41;5076954;28;20435;-51
2021/07/15 03:43:49;;;;;;;2.67;2.47;;;26.30;51.70;;;-147.20;100.00;58430.41;5112075;28;20044;-53
2021/07/15 03:46:15;;;;;;;3.03;2.83;;;26.30;51.70;;;-147.20;100.00;58430.41;5112173;28;20095;-52
2021/07/15 03:48:44;;;;;;;3.10;2.90;;;26.30;51.80;;;-147.20;100.00;58430.41;5090809;28;20049;-51
2021/07/15 03:51:10;;;;;;;3.13;2.90;;;26.30;51.70;;;-147.20;100.00;58430.41;5096115;28;20040;-49
2021/07/15 03:53:38;;;;;;;3.88;2.85;;;26.30;51.80;;;-147.20;100.00;58430.41;5115553;28;20055;-47
2021/07/15 03:56:07;;;;;;;2.80;2.60;;;26.30;51.80;;;-147.20;100.00;58430.41;5115326;28;20054;-50
2021/07/15 03:58:36;;;;;;;3.00;2.80;;;26.30;51.80;;;-147.20;100.00;58430.41;5115438;28;20043;-50
2021/07/15 04:01:04;;;;;;;3.00;2.80;;;26.30;52.30;;;-147.20;100.00;58430.41;5097187;28;20130;-48
2021/07/15 04:03:32;;;;;;;3.10;2.80;;;26.30;51.80;;;-147.20;100.00;58430.41;5097137;28;20048;-49
2021/07/15 04:06:01;;;;;;;2.92;2.72;;;26.30;51.70;;;-147.20;100.00;58430.41;5115373;28;20055;-50
2021/07/15 04:08:27;;;;;;;2.83;2.63;;;26.30;51.80;;;-147.20;100.00;58430.41;5097087;28;20043;-50
2021/07/15 04:10:57;;;;;;;3.35;3.05;;;26.30;51.80;;;-147.20;100.00;58430.41;5115262;28;20483;-50
2021/07/15 04:13:25;;;;;;;3.20;3.00;;;26.30;51.80;;;-147.20;100.00;58430.41;5096267;28;20047;-54
2021/07/15 04:15:51;;;;;;;2.65;2.45;;;26.30;51.80;;;-147.20;100.00;58430.41;5096932;28;20054;-49
2021/07/15 04:18:22;;;;;;;3.35;3.05;;;26.20;51.70;;;-147.20;100.00;58430.41;5115170;28;20047;-53
2021/07/15 04:20:48;;;;;;;;;;;26.30;51.70;;;-147.20;100.00;58430.41;5115471;28;20051;-46
2021/07/15 04:23:18;;;;;;;2.92;2.72;;;26.30;51.80;;;-147.20;100.00;58430.41;5115221;28;19915;-49
2021/07/15 04:25:51;;;;;;;3.08;2.78;;;26.30;51.70;;;-147.20;100.00;58430.41;5078258;28;20059;-52
2021/07/15 04:28:19;;;;;;;2.38;2.17;;;26.30;51.70;;;-147.20;100.00;58430.41;5114967;28;20050;-50
2021/07/15 04:30:48;;;;;;;2.60;2.40;;;26.30;51.70;;;-147.20;100.00;58430.41;5094826;28;20050;-47
2021/07/15 04:33:14;;;;;;;3.00;2.80;;;26.30;51.70;;;-147.20;100.00;58430.41;5113373;28;20126;-48
2021/07/15 04:35:40;;;;;;;3.08;2.88;;;26.30;51.60;;;-147.20;100.00;58430.41;5114825;28;20547;-50
2021/07/15 04:38:07;;;;;;;2.90;2.70;;;26.30;51.60;;;-147.20;100.00;58430.41;5114568;28;20495;-48
2021/07/15 04:40:35;;;;;;;2.75;2.55;;;26.30;51.60;;;-147.20;100.00;58430.41;5075624;28;20044;-50
2021/07/15 04:43:07;;;;;;;2.58;2.38;;;26.30;51.60;;;-147.20;100.00;58430.41;5095597;28;20475;-52
2021/07/15 04:45:40;;;;;;;2.75;2.55;;;26.30;51.60;;;-147.20;100.00;58430.41;5114830;28;20054;-51
2021/07/15 04:48:08;;;;;;;2.80;2.60;;;26.30;51.50;;;-147.20;100.00;58430.41;5095058;28;20048;-46
2021/07/15 04:50:36;;;;;;;2.60;2.40;;;26.30;51.50;;;-147.20;100.00;58430.41;5114982;28;20051;-51
2021/07/15 04:53:07;;;;;;;2.67;2.47;;;26.40;51.50;;;-147.20;100.00;58430.41;5095522;28;20052;-50
2021/07/15 04:55:33;;;;;;;2.85;2.65;;;26.40;51.50;;;-147.20;100.00;58430.41;5096036;28;20051;-50
2021/07/15 04:58:04;;;;;;;2.70;2.50;;;26.50;51.40;;;-147.20;100.00;58430.41;5094966;28;20048;-53
2021/07/15 05:00:30;;;;;;;;;;;26.60;51.20;;;-147.20;100.00;58430.41;5114688;28;20048;-53
2021/07/15 05:03:01;;;;;;;2.90;2.70;;;26.70;50.90;;;-147.20;100.00;58430.41;5093721;28;20283;-51
2021/07/15 05:05:27;;;;;;;2.72;2.53;;;26.90;50.80;;;-147.20;100.00;58430.41;5096135;28;20047;-53
2021/07/15 05:07:52;;;;;;;2.78;2.58;;;26.90;50.50;;;-147.20;100.00;58430.41;5114133;28;20055;-49
2021/07/15 05:10:18;;;;;;;2.80;2.60;;;27.10;51.00;;;-147.20;100.00;58430.41;5114718;28;20047;-52
2021/07/15 05:12:44;;;;;;;2.35;2.15;;;27.10;50.20;;;-147.20;100.00;58430.41;5110628;28;20044;-51
2021/07/15 05:15:11;;;;;;;3.22;2.92;;;27.10;50.20;;;-147.20;100.00;58430.41;5114665;28;20064;-49
2021/07/15 05:17:38;;;;;;;2.58;2.38;;;27.10;50.10;;;-147.20;100.00;58430.41;5096249;28;20082;-50
2021/07/15 05:20:07;;;;;;;2.47;2.28;;;27.10;50.20;;;-147.20;100.00;58430.41;5114120;28;20068;-47
2021/07/15 05:22:33;;;;;;;2.53;2.33;;;27.00;50.20;;;-147.20;100.00;58430.41;5114052;28;20048;-49
2021/07/15 05:24:59;;;;;;;2.85;2.65;;;27.00;50.20;;;-147.20;100.00;58430.41;5114226;28;20066;-51
2021/07/15 05:27:24;;;;;;;2.40;2.20;;;27.00;50.20;;;-147.20;100.00;58430.41;5113959;28;20046;-51
2021/07/15 05:29:50;;;;;;;2.47;2.28;;;27.00;50.20;;;-147.20;100.00;58430.41;5095857;28;20134;-53
2021/07/15 05:32:16;;;;;;;2.53;2.33;;;27.00;50.40;;;-147.20;100.00;58430.41;5110523;28;20040;-51
2021/07/15 05:34:42;;;;;;;2.75;2.55;;;26.90;50.40;;;-147.20;100.00;58430.41;5113912;28;20142;-51
2021/07/15 05:37:07;;;;;;;2.67;2.47;;;27.00;50.50;;;-147.20;100.00;58430.41;5114110;28;20035;-52
2021/07/15 05:39:34;;;;;;;2.50;2.30;;;26.90;50.40;;;-147.20;100.00;58430.41;5113854;28;20499;-50
2021/07/15 05:41:59;;;;;;;2.60;2.40;;;26.90;50.40;;;-147.20;100.00;58430.41;5113833;28;20072;-52
2021/07/15 05:44:25;;;;;;;2.78;2.58;;;26.90;50.40;;;-147.20;100.00;58430.41;5113693;28;20514;-51
2021/07/15 05:46:51;;;;;;;2.47;2.28;;;27.00;50.50;;;-147.20;100.00;58430.41;5113698;28;20510;-49
2021/07/15 05:49:17;;;;;;;2.60;2.40;;;26.90;50.40;;;-147.20;100.00;58430.41;5113980;28;20062;-53
2021/07/15 05:51:46;;;;;;;2.55;2.35;;;27.00;50.40;;;-147.20;100.00;58430.41;5113923;28;20196;-49
2021/07/15 05:54:13;;;;;;;2.78;2.58;;;27.00;50.90;;;-147.20;100.00;58430.41;5113892;28;20204;-51
2021/07/15 05:56:39;;;;;;;2.65;2.45;;;27.00;50.40;;;-147.20;100.00;58430.41;5113533;28;20391;-51
2021/07/15 05:59:05;;;;;;;2.10;2.00;;;27.00;50.30;;;-147.20;100.00;58430.41;5114223;28;20059;-53
2021/07/15 06:01:31;;;;;;;2.63;2.42;;;27.00;50.30;;;-147.20;100.00;58430.41;5113781;28;20062;-50
2021/07/15 06:03:56;;;;;;;2.63;2.42;;;27.00;50.30;;;-147.20;100.00;58430.41;5113290;28;20054;-53
2021/07/15 06:06:22;;;;;;;2.30;2.20;;;27.00;50.30;;;-147.20;100.00;58430.41;5114016;28;20437;-50
2021/07/15 06:08:48;;;;;;;2.60;2.40;;;27.00;50.30;;;-147.20;100.00;58430.41;5113200;28;20043;-50
2021/07/15 06:11:14;;;;;;;2.20;2.10;;;27.10;50.20;;;-147.20;100.00;58430.41;5113399;28;20104;-51
2021/07/15 06:13:40;;;;;;;2.50;2.30;;;27.10;50.10;;;-147.20;100.00;58430.41;5112431;28;20181;-48
2021/07/15 06:16:06;;;;;;;2.70;2.50;;;27.20;50.20;;;-147.20;100.00;58430.41;5113192;28;20047;-50
2021/07/15 06:18:33;;;;;;;2.53;2.33;;;27.20;50.00;;;-147.20;100.00;58430.41;5113486;28;20399;-52
2021/07/15 06:20:59;;;;;;;2.50;2.30;;;27.20;49.90;;;-147.20;100.00;58430.41;5113269;28;20055;-51
2021/07/15 06:23:26;;;;;;;2.30;2.10;;;27.30;49.90;;;-147.20;100.00;58430.41;5113156;28;20044;-55
2021/07/15 06:25:52;;;;;;;2.40;2.20;;;27.30;49.80;;;-147.20;100.00;58430.41;5113058;28;20072;-48
2021/07/15 06:28:20;;;;;;;2.45;2.28;;;27.30;49.70;;;-147.20;100.00;58430.41;5113098;28;20085;-47
2021/07/15 06:30:49;;;;;;;2.03;1.92;;;27.30;49.60;;;-147.20;100.00;58430.41;5113194;28;20494;-50
2021/07/15 06:33:16;;;;;;;1.92;1.83;;;27.30;49.60;;;-147.20;100.00;58430.41;5113133;28;20101;-52
2021/07/15 06:35:42;;;;;;;2.50;2.30;;;27.40;49.70;;;-147.20;100.00;58430.41;5094089;28;20054;-55
2021/07/15 06:38:09;;;;;;;2.10;2.00;;;27.30;49.60;;;-147.20;100.00;58430.41;5113444;28;20083;-54
2021/07/15 06:40:34;;;;;;;2.20;2.10;;;27.40;49.70;;;-147.20;100.00;58430.41;5110932;28;20499;-50
2021/07/15 06:43:00;;;;;;;2.55;2.35;;;27.50;49.60;;;-147.20;100.00;58430.41;5112710;28;20054;-51
2021/07/15 06:45:26;;;;;;;2.10;2.00;;;27.50;49.40;;;-147.20;100.00;58430.41;5112781;28;20044;-53
2021/07/15 06:47:52;;;;;;;2.65;2.45;;;27.50;49.30;;;-147.20;100.00;58430.41;5113040;28;20050;-51
2021/07/15 06:50:18;;;;;;;2.80;2.25;;;27.60;49.30;;;-147.20;100.00;58430.41;5112807;28;20043;-48
2021/07/15 06:52:45;;;;;;;2.40;2.25;;;27.70;49.10;;;-147.20;100.00;58430.41;5112837;28;20079;-50
2021/07/15 06:55:12;;;;;;;2.10;2.00;;;27.80;49.00;;;-147.20;100.00;58430.41;5112712;28;20522;-49
2021/07/15 06:57:38;;;;;;;2.47;2.30;;;27.90;48.80;;;-147.20;100.00;58430.41;5113077;28;20048;-49
2021/07/15 07:00:09;;;;;;;2.42;2.13;;;27.90;48.70;;;-147.20;100.00;58430.41;5112969;28;20048;-50
2021/07/15 07:02:42;;;;;;;;;;;28.00;48.60;;;-147.20;100.00;58430.41;5113773;28;20072;-51
2021/07/15 07:05:09;;;;;;;2.50;2.30;;;28.10;48.50;;;-147.20;100.00;58430.41;5094285;28;20321;-47
2021/07/15 07:07:36;;;;;;;2.30;2.10;;;28.10;48.30;;;-147.20;100.00;58430.41;5093016;28;20047;-47
2021/07/15 07:10:07;;;;;;;2.22;2.05;;;28.20;48.30;;;-147.20;100.00;58430.41;5112509;28;20058;-52
2021/07/15 07:12:33;;;;;;;2.58;2.00;;;28.30;48.20;;;-147.20;100.00;58430.41;5112471;28;20043;-51
2021/07/15 07:14:59;;;;;;;2.10;2.00;;;28.30;48.00;;;-147.20;100.00;58430.41;5112511;28;20054;-49
2021/07/15 07:17:25;;;;;;;2.10;2.00;;;28.40;48.00;;;-147.20;100.00;58430.41;5112473;28;20131;-47
2021/07/15 07:19:51;;;;;;;2.20;2.10;;;28.40;47.90;;;-147.20;100.00;58430.41;5112264;28;20484;-52
2021/07/15 07:22:17;;;;;;;2.40;2.20;;;28.50;47.80;;;-147.20;100.00;58430.41;5112345;28;20052;-54
2021/07/15 07:24:43;;;;;;;2.50;2.30;;;28.50;47.80;;;-147.20;100.00;58430.41;5113799;28;20043;-52
2021/07/15 07:27:09;;;;;;;2.10;2.00;;;28.40;47.80;;;-147.20;100.00;58430.41;5116127;28;20066;-50
2021/07/15 07:29:35;;;;;;;2.20;2.05;;;28.40;47.90;;;-147.20;100.00;58430.41;5115724;28;20058;-49
2021/07/15 07:32:02;;;;;;;2.75;2.33;;;28.40;47.70;;;-147.20;100.00;58430.41;5115789;28;20043;-52
2021/07/15 07:34:27;;;;;;;2.60;2.08;;;28.50;47.70;;;-147.20;100.00;58430.41;5097027;28;20094;-51
2021/07/15 07:36:53;;;;;;;2.50;2.30;;;28.60;47.60;;;-147.20;100.00;58430.41;5115854;28;20043;-50
2021/07/15 07:39:19;;;;;;;2.45;2.25;;;28.70;47.50;;;-147.20;100.00;58430.41;5115674;28;20047;-52
2021/07/15 07:41:45;;;;;;;2.20;2.05;;;28.70;47.40;;;-147.20;100.00;58430.41;5115996;28;20104;-53
2021/07/15 07:44:11;;;;;;;2.30;2.10;;;28.60;47.40;;;-147.20;100.00;58430.41;5115556;28;20562;-54
2021/07/15 07:46:37;;;;;;;2.40;2.20;;;28.60;47.40;;;-147.20;100.00;58430.41;5116262;28;20055;-48
2021/07/15 07:49:03;;;;;;;2.20;2.00;;;28.60;47.50;;;-147.20;100.00;58430.41;5115474;28;20134;-52
2021/07/15 07:51:30;;;;;;;2.20;2.00;;;28.60;47.50;;;-147.20;100.00;58430.41;5115632;28;20043;-50
2021/07/15 07:53:56;;;;;;;2.00;1.90;;;28.50;47.50;;;-147.20;100.00;58430.41;5115531;28;20056;-50
2021/07/15 07:56:22;;;;;;;2.40;2.20;;;28.50;47.50;;;-147.20;100.00;58430.41;5115511;28;20040;-53
2021/07/15 07:58:48;;;;;;;2.28;2.08;;;28.50;47.50;;;-147.20;100.00;58430.41;5115424;28;20035;-51
2021/07/15 08:01:15;;;;;;;2.10;1.90;;;28.50;47.60;;;-147.20;100.00;58430.41;5115132;28;20108;-48
2021/07/15 08:03:41;;;;;;;2.50;2.30;;;28.60;47.60;;;-147.20;100.00;58430.41;5115171;28;20074;-49
2021/07/15 08:06:07;;;;;;;2.08;1.98;;;28.50;47.50;;;-147.20;100.00;58430.41;5115324;28;20090;-52
2021/07/15 08:08:35;;;;;;;3.33;2.40;;;28.60;47.50;;;-147.20;100.00;58430.41;5115116;28;20070;-52
2021/07/15 08:11:02;;;;;;;3.05;2.30;;;28.60;47.40;;;-147.20;100.00;58430.41;5096122;28;20044;-51
2021/07/15 08:13:28;;;;;;;2.65;2.45;;;28.70;47.30;;;-147.20;100.00;58430.41;5115177;28;20059;-53
2021/07/15 08:15:54;;;;;;;2.20;2.00;;;28.70;47.20;;;-147.20;100.00;58430.41;5115125;28;20051;-53
2021/07/15 08:18:23;;;;;;;2.78;2.47;;;28.70;47.20;;;-147.20;100.00;58430.41;5114936;28;20051;-50
2021/07/15 08:20:50;;;;;;;2.00;1.90;;;28.80;47.10;;;-147.20;100.00;58430.41;5115549;28;20134;-50
2021/07/15 08:23:16;;;;;;;2.20;2.00;;;28.90;47.00;;;-147.20;100.00;58430.41;5114987;28;20108;-52
2021/07/15 08:25:42;;;;;;;2.45;2.25;;;28.90;46.90;;;-147.20;100.00;58430.41;5115055;28;20131;-54
2021/07/15 08:28:08;;;;;;;2.15;2.03;;;28.90;46.90;;;-147.20;100.00;58430.41;5114690;28;20200;-52
2021/07/15 08:30:35;;;;;;;2.20;2.00;;;28.80;46.90;;;-147.20;100.00;58430.41;5078224;28;20052;-51
2021/07/15 08:33:03;;;;;;;2.78;2.22;;;28.80;46.90;;;-147.20;100.00;58430.41;5115263;28;20052;-50
2021/07/15 08:35:31;;;;;;;2.13;2.00;;;28.80;46.90;;;-147.20;100.00;58430.41;5114694;28;20456;-50
2021/07/15 08:37:57;;;;;;;2.50;2.30;;;28.90;46.90;;;-147.20;100.00;58430.41;5114384;28;20051;-49
2021/07/15 08:40:23;;;;;;;2.17;1.98;;;28.90;46.80;;;-147.20;100.00;58430.41;5115054;28;20371;-50
2021/07/15 08:42:49;;;;;;;2.88;2.08;;;28.90;46.70;;;-147.20;100.00;58430.41;5111930;28;20503;-50
2021/07/15 08:45:15;;;;;;;2.33;2.13;;;28.90;46.80;;;-147.20;100.00;58430.41;5114591;28;20051;-50
2021/07/15 08:47:43;;;;;;;2.28;2.08;;;28.90;46.70;;;-147.20;100.00;58430.41;5114926;28;20047;-48
2021/07/15 08:50:14;;;;;;;2.30;2.10;;;29.00;46.70;;;-147.20;100.00;58430.41;5112420;28;20395;-50
2021/07/15 08:52:41;;;;;;;2.08;1.98;;;29.00;46.60;;;-147.20;100.00;58430.41;5113162;28;20433;-49
2021/07/15 08:57:34;;;;;;;2.22;2.00;;;29.10;46.60;;;-147.20;100.00;58430.41;5114779;28;20059;-54
2021/07/15 09:00:00;;;;;;;2.35;2.10;;;29.10;46.60;;;-147.20;100.00;58430.41;5114444;28;20067;-53
2021/07/15 09:02:26;;;;;;;2.00;1.80;;;29.10;46.50;;;-147.20;100.00;58430.41;5096737;28;20081;-53
2021/07/15 09:04:52;;;;;;;2.20;2.00;;;29.10;46.40;;;-147.20;100.00;58430.41;5114409;28;20045;-50
2021/07/15 09:07:19;;;;;;;2.03;1.80;;;29.10;46.30;;;-147.20;100.00;58430.41;5114430;28;20046;-48
2021/07/15 09:09:46;;;;;;;2.65;1.90;;;29.20;46.30;;;-147.20;100.00;58430.41;5114114;28;20533;-54
2021/07/15 09:12:16;;;;;;;2.15;1.83;;;29.20;46.30;;;-147.20;100.00;58430.41;5095909;28;20126;-48
2021/07/15 09:14:49;;;;;;;2.38;2.17;;;29.20;46.30;;;-147.20;100.00;58430.41;5114234;28;20071;-49
2021/07/15 09:17:25;;;;;;;2.30;2.10;;;29.30;46.30;;;-147.20;100.00;58430.41;5114570;28;20094;-51
2021/07/15 09:19:51;;;;;;;2.10;1.85;;;29.20;46.20;;;-147.20;100.00;58430.41;5094677;28;20447;-51
2021/07/15 09:22:17;;;;;;;2.42;2.17;;;29.20;46.20;;;-147.20;100.00;58430.41;5114123;28;20051;-52
2021/07/15 09:24:45;;;;;;;2.50;2.30;;;29.20;46.20;;;-147.20;100.00;58430.41;5113997;28;20120;-52
2021/07/15 09:27:22;;;;;;;2.70;2.10;;;29.20;46.20;;;-147.20;100.00;58430.41;5113998;28;20047;-53
2021/07/15 09:30:12;;;;;;;2.08;1.98;;;29.20;46.20;;;-147.20;100.00;58430.41;5114288;28;20043;-51
2021/07/15 09:32:53;;;;;;;2.38;1.83;;;29.20;46.30;;;-147.20;100.00;58430.41;5114399;28;20051;-50
2021/07/15 09:35:33;;;;;;;2.15;2.00;;;29.20;46.30;;;-147.20;100.00;58430.41;5096001;28;20325;-52
2021/07/15 09:38:21;;;;;;;2.33;2.03;;;29.20;46.30;;;-147.20;100.00;58430.41;5113752;28;20066;-54
2021/07/15 09:40:59;;;;;;;2.20;2.00;;;29.20;46.30;;;-147.20;100.00;58430.41;5113884;28;20146;-51
2021/07/15 09:43:37;;;;;;;2.75;1.90;;;29.20;46.30;;;-147.20;100.00;58430.41;5093852;28;20044;-52
2021/07/15 09:46:12;;;;;;;2.10;1.90;;;29.20;46.30;;;-147.20;100.00;58430.41;5112686;28;20403;-53
2021/07/15 09:48:40;;;;;;;2.17;1.98;;;29.20;46.30;;;-147.20;100.00;58430.41;5113486;28;20124;-52
2021/07/15 09:51:10;;;;;;;2.70;2.13;;;29.20;46.30;;;-147.20;100.00;58430.41;5113868;28;20071;-52
2021/07/15 09:53:36;;;;;;;2.25;1.98;;;29.20;46.30;;;-147.20;100.00;58430.41;5113567;28;20495;-50
2021/07/15 09:56:08;;;;;;;1.90;1.65;;;29.20;46.30;;;-147.20;100.00;58430.41;5113618;28;20092;-51
2021/07/15 09:58:37;;;;;;;2.88;2.20;;;29.20;46.30;;;-147.20;100.00;58430.41;5095130;28;20167;-47
2021/07/15 10:01:06;;;;;;;2.10;1.90;;;29.20;46.30;;;-147.20;100.00;58430.41;5113471;28;20053;-52
2021/07/15 10:03:42;;;;;;;2.10;1.90;;;29.20;46.20;;;-147.20;100.00;58430.41;5113390;28;20547;-53
2021/07/15 10:06:11;;;;;;;2.47;2.28;;;29.20;46.10;;;-147.20;100.00;58430.41;5113444;28;20039;-46
2021/07/15 10:08:40;;;;;;;1.77;1.67;;;29.30;46.00;;;-147.20;100.00;58430.41;5095412;28;20476;-51
2021/07/15 10:11:26;;;;;;;1.92;1.83;;;29.30;46.00;;;-147.20;100.00;58430.41;5095430;28;20056;-48